createdAt,value
2018-01-19T00:01:01.936Z,89.12
2018-01-19T00:03:29.897Z,89.29
2018-01-19T00:05:57.873Z,89.45
2018-01-19T00:08:25.796Z,88.81
2018-01-19T00:10:53.735Z,88.94
2018-01-19T00:13:21.752Z,88.99
2018-01-19T00:15:49.769Z,89.90
2018-01-19T00:18:17.795Z,90.21
2018-01-19T00:20:46.866Z,89.51
2018-01-19T00:23:18.654Z,90.66
2018-01-19T00:25:46.573Z,90.68
2018-01-19T00:28:15.330Z,90.21
2018-01-19T00:30:43.315Z,90.88
2018-01-19T00:33:11.951Z,90.46
2018-01-19T00:35:39.993Z,90.31
2018-01-19T00:38:07.928Z,90.23
2018-01-19T00:40:35.955Z,90.34
2018-01-19T00:43:03.975Z,89.65
2018-01-19T00:45:31.955Z,89.34
2018-01-19T00:47:59.923Z,89.95
2018-01-19T00:50:27.870Z,89.63
2018-01-19T00:52:55.851Z,89.13
2018-01-19T00:55:24.541Z,90.21
2018-01-19T00:57:52.545Z,89.66
2018-01-19T01:00:20.542Z,89.25
2018-01-19T01:02:48.487Z,89.47
2018-01-19T01:05:16.436Z,89.50
2018-01-19T01:07:44.456Z,89.90
2018-01-19T01:10:12.392Z,88.84
2018-01-19T01:12:40.335Z,89.10
2018-01-19T01:15:08.379Z,89.04
2018-01-19T01:17:36.420Z,89.51
2018-01-19T01:20:04.370Z,88.77
2018-01-19T01:22:32.321Z,88.99
2018-01-19T01:25:00.317Z,89.28
2018-01-19T01:27:28.228Z,89.33
2018-01-19T01:29:56.242Z,88.76
2018-01-19T01:32:24.168Z,88.71
2018-01-19T01:34:52.166Z,88.96
2018-01-19T01:37:20.093Z,89.47
2018-01-19T01:39:48.025Z,88.96
2018-01-19T01:42:16.095Z,88.80
2018-01-19T01:44:44.017Z,88.51
2018-01-19T01:47:12.010Z,88.79
2018-01-19T01:49:39.957Z,88.10
2018-01-19T01:52:07.949Z,88.83
2018-01-19T01:54:36.218Z,88.69
2018-01-19T01:57:04.175Z,88.57
2018-01-19T01:59:32.078Z,88.61
2018-01-19T02:02:00.039Z,88.87
2018-01-19T02:04:27.982Z,88.80
2018-01-19T02:06:55.919Z,88.56
2018-01-19T02:09:23.985Z,88.33
2018-01-19T02:11:51.990Z,88.64
2018-01-19T02:14:20.085Z,88.54
2018-01-19T02:16:48.101Z,88.92
2018-01-19T02:19:16.025Z,88.96
2018-01-19T02:21:43.957Z,89.60
2018-01-19T02:24:12.041Z,88.38
2018-01-19T02:26:40.054Z,88.80
2018-01-19T02:29:07.993Z,88.35
2018-01-19T02:31:35.996Z,88.39
2018-01-19T02:34:05.196Z,88.51
2018-01-19T02:36:33.151Z,88.55
2018-01-19T02:39:01.077Z,88.81
2018-01-19T02:41:29.143Z,88.22
2018-01-19T02:43:57.267Z,87.40
2018-01-19T02:46:25.321Z,87.84
2018-01-19T02:48:53.373Z,88.46
2018-01-19T02:51:21.302Z,88.02
2018-01-19T02:53:49.342Z,88.57
2018-01-19T02:56:17.287Z,89.21
2018-01-19T02:58:45.221Z,89.85
2018-01-19T03:01:13.163Z,90.42
2018-01-19T03:03:41.214Z,90.30
2018-01-19T03:06:09.213Z,90.28
2018-01-19T03:08:37.125Z,90.69
2018-01-19T03:11:05.297Z,91.32
2018-01-19T03:13:33.969Z,91.31
2018-01-19T03:16:02.535Z,91.82
2018-01-19T03:18:30.608Z,91.64
2018-01-19T03:20:58.542Z,91.62
2018-01-19T03:23:26.479Z,92.01
2018-01-19T03:25:54.521Z,91.50
2018-01-19T03:28:22.505Z,91.69
2018-01-19T03:30:50.629Z,91.60
2018-01-19T03:33:18.559Z,92.01
2018-01-19T03:35:46.536Z,92.01
2018-01-19T03:38:14.613Z,91.69
2018-01-19T03:40:42.597Z,92.06
2018-01-19T03:43:10.586Z,92.14
2018-01-19T03:45:38.578Z,92.54
2018-01-19T03:48:06.528Z,92.07
2018-01-19T03:50:34.526Z,91.89
2018-01-19T03:53:03.456Z,91.95
2018-01-19T03:55:31.403Z,91.93
2018-01-19T03:57:59.338Z,91.39
2018-01-19T04:00:27.279Z,91.70
2018-01-19T04:02:55.219Z,91.94
2018-01-19T04:05:23.188Z,91.97
2018-01-19T04:07:51.114Z,91.02
2018-01-19T04:10:19.434Z,92.07
2018-01-19T04:12:49.526Z,92.23
2018-01-19T04:15:17.538Z,92.34
2018-01-19T04:17:45.583Z,92.56
2018-01-19T04:20:13.506Z,92.10
2018-01-19T04:22:41.631Z,92.07
2018-01-19T04:25:09.610Z,92.01
2018-01-19T04:27:37.553Z,92.89
2018-01-19T04:30:05.484Z,93.12
2018-01-19T04:32:33.581Z,93.18
2018-01-19T04:35:01.528Z,92.89
2018-01-19T04:37:29.467Z,92.79
2018-01-19T04:39:57.646Z,92.88
2018-01-19T04:42:25.653Z,92.93
2018-01-19T04:44:53.577Z,92.89
2018-01-19T04:47:21.551Z,92.89
2018-01-19T04:49:49.484Z,92.92
2018-01-19T04:52:17.413Z,93.62
2018-01-19T04:54:45.382Z,92.68
2018-01-19T04:57:13.311Z,92.72
2018-01-19T04:59:41.242Z,93.12
2018-01-19T05:02:09.290Z,92.75
2018-01-19T05:04:37.212Z,92.95
2018-01-19T05:07:05.145Z,92.52
2018-01-19T05:09:33.078Z,92.37
2018-01-19T05:12:01.020Z,92.55
2018-01-19T05:14:28.994Z,92.32
2018-01-19T05:16:56.980Z,92.99
2018-01-19T05:19:24.914Z,92.75
2018-01-19T05:21:52.843Z,92.56
2018-01-19T05:24:20.770Z,92.49
2018-01-19T05:26:48.709Z,92.88
2018-01-19T05:29:16.642Z,92.93
2018-01-19T05:31:44.596Z,92.02
2018-01-19T05:34:12.548Z,93.40
2018-01-19T05:36:40.518Z,92.63
2018-01-19T05:39:08.475Z,93.43
2018-01-19T05:41:36.409Z,93.33
2018-01-19T05:44:04.470Z,93.66
2018-01-19T05:46:32.390Z,93.13
2018-01-19T05:49:00.320Z,93.56
2018-01-19T05:51:28.306Z,93.44
2018-01-19T05:53:56.284Z,94.04
2018-01-19T05:56:24.210Z,94.15
2018-01-19T05:58:52.146Z,94.00
2018-01-19T06:01:20.063Z,93.98
2018-01-19T06:03:48.097Z,93.88
2018-01-19T06:06:16.109Z,93.37
2018-01-19T06:08:44.053Z,93.23
2018-01-19T06:11:12.023Z,92.96
2018-01-19T06:13:41.471Z,92.24
2018-01-19T06:16:09.574Z,92.55
2018-01-19T06:18:37.543Z,92.60
2018-01-19T06:21:05.501Z,92.28
2018-01-19T06:23:33.421Z,92.51
2018-01-19T06:26:01.435Z,92.75
2018-01-19T06:28:29.386Z,93.20
2018-01-19T06:30:57.502Z,92.89
2018-01-19T06:33:25.462Z,92.72
2018-01-19T06:35:53.404Z,92.66
2018-01-19T06:38:21.373Z,93.45
2018-01-19T06:40:49.308Z,92.56
2018-01-19T06:43:17.291Z,92.58
2018-01-19T06:45:45.977Z,92.71
2018-01-19T06:48:13.917Z,92.42
2018-01-19T06:50:42.020Z,92.66
2018-01-19T06:53:09.989Z,93.27
2018-01-19T06:55:37.930Z,92.16
2018-01-19T06:58:06.079Z,92.63
2018-01-19T07:00:34.071Z,92.83
2018-01-19T07:03:02.147Z,92.90
2018-01-19T07:05:30.065Z,92.21
2018-01-19T07:07:58.041Z,91.30
2018-01-19T07:10:25.982Z,92.40
2018-01-19T07:12:53.897Z,91.95
2018-01-19T07:15:21.882Z,93.32
2018-01-19T07:17:49.939Z,93.06
2018-01-19T07:20:17.900Z,92.82
2018-01-19T07:22:45.825Z,93.66
2018-01-19T07:25:13.801Z,93.43
2018-01-19T07:27:41.712Z,93.89
2018-01-19T07:30:09.742Z,92.98
2018-01-19T07:32:37.673Z,92.20
2018-01-19T07:35:05.616Z,92.98
2018-01-19T07:37:33.525Z,93.61
2018-01-19T07:40:01.463Z,93.01
2018-01-19T07:42:29.409Z,92.57
2018-01-19T07:44:57.360Z,93.13
2018-01-19T07:47:25.292Z,93.16
2018-01-19T07:49:53.261Z,92.84
2018-01-19T07:52:21.186Z,92.97
2018-01-19T07:54:49.114Z,93.44
2018-01-19T07:57:17.853Z,94.41
2018-01-19T07:59:45.802Z,96.83
2018-01-19T08:02:13.743Z,95.83
2018-01-19T08:04:41.694Z,93.38
2018-01-19T08:07:09.632Z,92.16
2018-01-19T08:09:37.656Z,92.28
2018-01-19T08:12:05.602Z,91.15
2018-01-19T08:14:33.596Z,92.96
2018-01-19T08:17:01.538Z,93.24
2018-01-19T08:19:29.477Z,93.60
2018-01-19T08:21:57.449Z,93.49
2018-01-19T08:24:25.419Z,93.46
2018-01-19T08:26:53.365Z,93.04
2018-01-19T08:29:21.350Z,93.39
2018-01-19T08:31:49.271Z,93.28
2018-01-19T08:34:17.223Z,92.95
2018-01-19T08:36:45.172Z,93.05
2018-01-19T08:39:13.110Z,94.08
2018-01-19T08:41:41.042Z,93.17
2018-01-19T08:44:08.990Z,93.37
2018-01-19T08:46:36.991Z,94.11
2018-01-19T08:49:04.952Z,94.05
2018-01-19T08:51:32.906Z,93.88
2018-01-19T08:54:00.904Z,93.95
2018-01-19T08:56:28.837Z,93.27
2018-01-19T08:58:57.499Z,92.50
2018-01-19T09:01:25.542Z,92.42
2018-01-19T09:03:53.469Z,92.73
2018-01-19T09:06:21.381Z,93.50
2018-01-19T09:08:49.638Z,93.10
2018-01-19T09:11:17.716Z,93.04
2018-01-19T09:13:45.705Z,92.97
2018-01-19T09:16:13.718Z,92.72
2018-01-19T09:18:41.883Z,91.88
2018-01-19T09:21:09.814Z,91.66
2018-01-19T09:23:37.783Z,91.67
2018-01-19T09:26:05.756Z,91.66
2018-01-19T09:28:33.811Z,91.25
2018-01-19T09:31:01.818Z,91.47
2018-01-19T09:33:29.916Z,91.17
2018-01-19T09:35:57.881Z,91.63
2018-01-19T09:38:25.996Z,91.60
2018-01-19T09:40:54.358Z,90.60
2018-01-19T09:43:22.528Z,91.64
2018-01-19T09:45:50.588Z,92.59
2018-01-19T09:48:18.626Z,91.79
2018-01-19T09:50:46.929Z,91.47
2018-01-19T09:53:16.159Z,91.95
2018-01-19T09:55:44.534Z,91.95
2018-01-19T09:58:13.191Z,91.51
2018-01-19T10:00:41.286Z,90.69
2018-01-19T10:03:11.666Z,90.64
2018-01-19T10:05:39.689Z,92.74
2018-01-19T10:08:08.418Z,91.54
2018-01-19T10:10:36.567Z,90.36
2018-01-19T10:13:04.695Z,92.21
2018-01-19T10:15:32.827Z,90.32
2018-01-19T10:18:01.893Z,91.76
2018-01-19T10:20:29.958Z,91.67
2018-01-19T10:22:58.115Z,91.53
2018-01-19T10:25:26.865Z,91.74
2018-01-19T10:27:55.170Z,91.21
2018-01-19T10:30:23.104Z,90.02
2018-01-19T10:32:51.133Z,90.40
2018-01-19T10:35:19.397Z,90.66
2018-01-19T10:37:47.590Z,90.56
2018-01-19T10:40:15.739Z,90.41
2018-01-19T10:42:43.733Z,91.53
2018-01-19T10:45:12.663Z,90.90
2018-01-19T10:47:40.631Z,91.21
2018-01-19T10:50:08.663Z,89.90
2018-01-19T10:52:36.832Z,90.28
2018-01-19T10:55:04.833Z,90.63
2018-01-19T10:57:33.020Z,90.81
2018-01-19T11:00:01.220Z,90.49
2018-01-19T11:02:29.254Z,90.15
2018-01-19T11:04:57.198Z,90.37
2018-01-19T11:07:25.119Z,89.21
2018-01-19T11:09:53.062Z,90.08
2018-01-19T11:12:21.014Z,90.42
2018-01-19T11:14:49.027Z,90.12
2018-01-19T11:17:17.013Z,89.44
2018-01-19T11:19:44.929Z,89.37
2018-01-19T11:22:12.845Z,89.31
2018-01-19T11:24:40.792Z,88.68
2018-01-19T11:27:09.197Z,89.06
2018-01-19T11:29:37.241Z,89.68
2018-01-19T11:32:05.208Z,90.24
2018-01-19T11:34:33.180Z,89.66
2018-01-19T11:37:01.247Z,90.24
2018-01-19T11:39:29.263Z,89.95
2018-01-19T11:41:57.349Z,89.23
2018-01-19T11:44:25.433Z,89.36
2018-01-19T11:46:53.589Z,89.99
2018-01-19T11:49:21.539Z,90.41
2018-01-19T11:51:49.554Z,90.28
2018-01-19T11:54:17.606Z,90.11
2018-01-19T11:56:45.615Z,89.65
2018-01-19T11:59:13.669Z,90.15
2018-01-19T12:01:41.889Z,89.69
2018-01-19T12:04:09.866Z,89.47
2018-01-19T12:06:37.795Z,89.90
2018-01-19T12:09:06.178Z,89.75
2018-01-19T12:11:34.197Z,89.92
2018-01-19T12:14:02.197Z,89.06
2018-01-19T12:16:30.124Z,89.58
2018-01-19T12:18:58.048Z,90.08
2018-01-19T12:21:26.051Z,90.18
2018-01-19T12:23:54.058Z,89.98
2018-01-19T12:26:22.126Z,89.76
2018-01-19T12:28:50.120Z,88.37
2018-01-19T12:31:18.360Z,88.85
2018-01-19T12:33:46.290Z,89.49
2018-01-19T12:36:14.705Z,88.12
2018-01-19T12:38:42.748Z,88.76
2018-01-19T12:41:10.674Z,88.80
2018-01-19T12:43:41.818Z,88.52
2018-01-19T12:46:09.941Z,88.44
2018-01-19T12:48:37.928Z,89.66
2018-01-19T12:51:06.002Z,90.08
2018-01-19T12:53:34.415Z,89.64
2018-01-19T12:56:02.423Z,88.99
2018-01-19T12:58:31.071Z,89.30
2018-01-19T13:00:59.243Z,88.90
2018-01-19T13:03:27.388Z,88.57
2018-01-19T13:05:55.890Z,89.22
2018-01-19T13:08:25.082Z,88.94
2018-01-19T13:10:54.341Z,88.66
2018-01-19T13:13:22.480Z,89.02
2018-01-19T13:15:50.560Z,88.67
2018-01-19T13:18:18.850Z,88.09
2018-01-19T13:20:47.592Z,88.06
2018-01-19T13:23:15.956Z,88.66
2018-01-19T13:25:43.925Z,88.55
2018-01-19T13:28:11.895Z,88.22
2018-01-19T13:30:39.818Z,88.48
2018-01-19T13:33:07.751Z,90.05
2018-01-19T13:35:35.777Z,89.86
2018-01-19T13:38:03.927Z,89.98
2018-01-19T13:40:31.910Z,89.99
2018-01-19T13:43:00.557Z,89.44
2018-01-19T13:45:28.815Z,88.76
2018-01-19T13:47:57.534Z,89.20
2018-01-19T13:50:25.572Z,89.09
2018-01-19T13:52:53.815Z,88.83
2018-01-19T13:55:22.030Z,88.64
2018-01-19T13:57:50.700Z,89.02
2018-01-19T14:00:19.349Z,88.60
2018-01-19T14:02:51.306Z,87.99
2018-01-19T14:05:19.753Z,88.38
2018-01-19T14:07:55.283Z,89.32
2018-01-19T14:10:25.130Z,88.44
2018-01-19T14:12:53.377Z,88.70
2018-01-19T14:15:21.767Z,88.11
2018-01-19T14:17:50.294Z,88.48
2018-01-19T14:20:18.380Z,88.54
2018-01-19T14:22:46.370Z,88.27
2018-01-19T14:25:14.514Z,87.89
2018-01-19T14:27:42.557Z,87.75
2018-01-19T14:30:10.889Z,88.36
2018-01-19T14:32:38.837Z,88.60
2018-01-19T14:35:08.454Z,88.96
2018-01-19T14:37:36.713Z,88.38
2018-01-19T14:40:04.846Z,89.00
2018-01-19T14:42:33.761Z,88.96
2018-01-19T14:45:01.750Z,88.83
2018-01-19T14:47:30.806Z,88.62
2018-01-19T14:49:58.977Z,89.30
2018-01-19T14:52:27.904Z,88.02
2018-01-19T14:54:56.061Z,87.61
2018-01-19T14:57:24.800Z,87.51
2018-01-19T14:59:52.988Z,87.97
2018-01-19T15:02:21.373Z,88.68
2018-01-19T15:04:49.369Z,89.23
2018-01-19T15:07:17.408Z,90.91
2018-01-19T15:09:45.352Z,90.31
2018-01-19T15:12:13.419Z,89.74
2018-01-19T15:14:41.903Z,90.34
2018-01-19T15:17:09.833Z,89.68
2018-01-19T15:19:37.940Z,90.00
2018-01-19T15:22:07.786Z,89.67
2018-01-19T15:24:37.066Z,89.77
2018-01-19T15:27:05.098Z,89.99
2018-01-19T15:29:33.040Z,89.50
2018-01-19T15:32:01.182Z,89.92
2018-01-19T15:34:29.185Z,89.21
2018-01-19T15:36:57.125Z,89.26
2018-01-19T15:39:25.217Z,89.18
2018-01-19T15:41:53.170Z,89.74
2018-01-19T15:44:21.118Z,90.40
2018-01-19T15:46:49.110Z,90.80
2018-01-19T15:49:17.122Z,89.92
2018-01-19T15:51:45.058Z,90.53
2018-01-19T15:54:13.483Z,90.08
2018-01-19T15:56:41.816Z,90.60
2018-01-19T15:59:09.878Z,90.08
2018-01-19T16:01:38.045Z,90.08
2018-01-19T16:04:06.110Z,89.88
2018-01-19T16:06:34.307Z,90.12
2018-01-19T16:09:02.505Z,89.95
2018-01-19T16:11:30.522Z,89.27
2018-01-19T16:13:58.605Z,89.94
2018-01-19T16:16:26.543Z,90.14
2018-01-19T16:18:54.544Z,90.23
2018-01-19T16:21:22.488Z,90.11
2018-01-19T16:23:50.494Z,89.67
2018-01-19T16:26:18.543Z,90.02
2018-01-19T16:28:47.194Z,90.09
2018-01-19T16:31:15.313Z,89.28
2018-01-19T16:33:43.286Z,88.99
2018-01-19T16:36:11.370Z,89.21
2018-01-19T16:38:39.613Z,89.81
2018-01-19T16:41:07.556Z,89.91
2018-01-19T16:43:35.645Z,89.31
2018-01-19T16:46:03.621Z,88.67
2018-01-19T16:48:31.610Z,89.39
2018-01-19T16:50:59.800Z,89.19
2018-01-19T16:53:27.874Z,89.44
2018-01-19T16:55:56.111Z,89.98
2018-01-19T16:58:24.137Z,89.89
2018-01-19T17:00:52.303Z,90.90
2018-01-19T17:03:20.606Z,90.70
2018-01-19T17:05:49.392Z,91.08
2018-01-19T17:08:17.541Z,90.76
2018-01-19T17:10:46.390Z,91.34
2018-01-19T17:13:14.484Z,91.28
2018-01-19T17:15:42.501Z,91.37
2018-01-19T17:18:10.830Z,90.57
2018-01-19T17:20:39.738Z,90.23
2018-01-19T17:23:08.867Z,90.29
2018-01-19T17:25:37.520Z,91.11
2018-01-19T17:28:05.603Z,90.86
2018-01-19T17:30:33.782Z,90.44
2018-01-19T17:33:01.885Z,89.65
2018-01-19T17:35:29.888Z,90.15
2018-01-19T17:37:58.692Z,90.13
2018-01-19T17:40:26.740Z,90.42
2018-01-19T17:42:55.162Z,90.54
2018-01-19T17:45:23.160Z,90.50
2018-01-19T17:47:51.368Z,89.84
2018-01-19T17:50:19.287Z,89.07
2018-01-19T17:52:47.244Z,89.66
2018-01-19T17:55:15.362Z,89.76
2018-01-19T17:57:43.679Z,89.83
2018-01-19T18:00:11.614Z,90.22
2018-01-19T18:02:40.210Z,89.85
2018-01-19T18:05:08.481Z,89.19
2018-01-19T18:07:42.170Z,90.47
2018-01-19T18:10:10.238Z,90.41
2018-01-19T18:12:38.164Z,90.49
2018-01-19T18:15:07.513Z,90.65
2018-01-19T18:17:35.551Z,90.48
2018-01-19T18:20:03.702Z,90.95
2018-01-19T18:22:31.681Z,91.40
2018-01-19T18:25:00.028Z,91.31
2018-01-19T18:27:28.045Z,91.15
2018-01-19T18:29:56.161Z,90.42
2018-01-19T18:32:24.284Z,91.09
2018-01-19T18:34:52.247Z,91.40
2018-01-19T18:37:20.234Z,91.34
2018-01-19T18:39:48.353Z,91.20
2018-01-19T18:42:16.701Z,91.10
2018-01-19T18:44:44.683Z,92.33
2018-01-19T18:47:12.612Z,91.50
2018-01-19T18:49:40.617Z,91.15
2018-01-19T18:52:08.605Z,91.62
2018-01-19T18:54:36.603Z,91.64
2018-01-19T18:57:04.731Z,92.58
2018-01-19T18:59:33.038Z,92.18
2018-01-19T19:02:01.048Z,92.20
2018-01-19T19:04:29.772Z,92.51
2018-01-19T19:06:58.045Z,92.11
2018-01-19T19:09:26.016Z,92.18
2018-01-19T19:11:53.963Z,92.11
2018-01-19T19:14:22.006Z,93.20
2018-01-19T19:16:50.560Z,91.94
2018-01-19T19:19:18.650Z,92.18
2018-01-19T19:21:47.331Z,92.84
2018-01-19T19:24:15.508Z,93.14
2018-01-19T19:26:43.698Z,93.17
2018-01-19T19:29:12.600Z,92.72
2018-01-19T19:31:40.522Z,93.67
2018-01-19T19:34:08.507Z,93.34
2018-01-19T19:36:36.443Z,93.56
2018-01-19T19:39:04.385Z,93.56
2018-01-19T19:41:32.338Z,94.05
2018-01-19T19:44:01.132Z,94.60
2018-01-19T19:46:29.302Z,93.89
2018-01-19T19:48:57.343Z,93.91
2018-01-19T19:51:25.834Z,92.79
2018-01-19T19:53:54.613Z,93.33
2018-01-19T19:56:23.162Z,93.36
2018-01-19T19:58:51.206Z,94.13
2018-01-19T20:01:21.002Z,93.43
2018-01-19T20:03:48.968Z,93.72
2018-01-19T20:06:17.062Z,93.28
2018-01-19T20:08:45.168Z,93.49
2018-01-19T20:11:14.720Z,93.78
2018-01-19T20:13:42.821Z,93.44
2018-01-19T20:16:10.766Z,93.20
2018-01-19T20:18:38.819Z,93.24
2018-01-19T20:21:06.774Z,94.30
2018-01-19T20:23:34.719Z,94.74
2018-01-19T20:26:02.734Z,94.57
2018-01-19T20:28:30.755Z,94.13
2018-01-19T20:30:58.754Z,93.72
2018-01-19T20:33:26.946Z,94.46
2018-01-19T20:35:54.894Z,94.28
2018-01-19T20:38:24.072Z,94.36
2018-01-19T20:40:52.316Z,94.58
2018-01-19T20:43:22.101Z,94.60
2018-01-19T20:45:50.211Z,94.23
2018-01-19T20:48:18.549Z,94.34
2018-01-19T20:50:47.545Z,94.36
2018-01-19T20:53:15.619Z,94.24
2018-01-19T20:55:43.685Z,93.85
2018-01-19T20:58:11.642Z,94.66
2018-01-19T21:00:39.653Z,94.30
2018-01-19T21:03:07.723Z,94.43
2018-01-19T21:05:36.106Z,94.04
2018-01-19T21:08:04.280Z,94.28
2018-01-19T21:10:32.287Z,94.09
2018-01-19T21:13:00.295Z,93.92
2018-01-19T21:15:28.573Z,93.82
2018-01-19T21:17:56.509Z,93.39
2018-01-19T21:20:24.475Z,93.04
2018-01-19T21:22:52.709Z,93.04
2018-01-19T21:25:20.667Z,94.21
2018-01-19T21:27:48.609Z,94.03
2018-01-19T21:30:17.076Z,93.40
2018-01-19T21:32:45.083Z,93.87
2018-01-19T21:35:13.019Z,93.85
2018-01-19T21:37:41.158Z,94.02
2018-01-19T21:40:10.039Z,93.71
2018-01-19T21:42:38.027Z,93.40
2018-01-19T21:45:05.963Z,92.98
2018-01-19T21:47:33.913Z,93.54
2018-01-19T21:50:01.935Z,93.46
2018-01-19T21:52:30.203Z,93.37
2018-01-19T21:54:58.220Z,93.89
2018-01-19T21:57:26.315Z,93.94
2018-01-19T21:59:54.382Z,93.95
2018-01-19T22:02:22.788Z,93.65
2018-01-19T22:04:51.909Z,93.43
2018-01-19T22:07:20.303Z,93.81
2018-01-19T22:09:48.339Z,93.87
2018-01-19T22:12:18.794Z,93.36
2018-01-19T22:14:46.806Z,93.34
2018-01-19T22:17:14.794Z,93.37
2018-01-19T22:19:42.956Z,93.17
2018-01-19T22:22:11.106Z,93.20
2018-01-19T22:24:39.141Z,92.82
2018-01-19T22:27:07.519Z,92.40
2018-01-19T22:29:36.894Z,92.55
2018-01-19T22:32:04.856Z,92.58
2018-01-19T22:34:32.918Z,92.37
2018-01-19T22:37:00.884Z,92.92
2018-01-19T22:39:29.240Z,92.95
2018-01-19T22:41:57.246Z,92.98
2018-01-19T22:44:25.211Z,92.76
2018-01-19T22:46:53.166Z,92.24
2018-01-19T22:49:21.126Z,93.12
2018-01-19T22:51:49.446Z,93.04
2018-01-19T22:54:17.534Z,93.31
2018-01-19T22:56:45.467Z,93.27
2018-01-19T22:59:13.577Z,93.27
2018-01-19T23:01:41.526Z,93.55
2018-01-19T23:04:09.530Z,93.33
2018-01-19T23:06:37.772Z,93.48
2018-01-19T23:09:05.787Z,93.28
2018-01-19T23:11:33.862Z,93.14
2018-01-19T23:14:01.823Z,93.05
2018-01-19T23:16:29.791Z,93.11
2018-01-19T23:18:57.739Z,92.92
2018-01-19T23:21:25.750Z,92.53
2018-01-19T23:23:53.690Z,92.85
2018-01-19T23:26:21.733Z,92.28
2018-01-19T23:28:49.716Z,92.88
2018-01-19T23:31:17.658Z,92.30
2018-01-19T23:33:45.932Z,91.51
2018-01-19T23:36:13.962Z,92.03
2018-01-19T23:38:41.929Z,92.42
2018-01-19T23:41:09.907Z,92.38
2018-01-19T23:43:37.928Z,92.62
2018-01-19T23:46:05.885Z,93.05
2018-01-19T23:48:33.848Z,93.40
2018-01-19T23:51:01.816Z,93.01
2018-01-19T23:53:29.791Z,93.24
2018-01-19T23:55:57.742Z,92.95
2018-01-19T23:58:25.823Z,93.55
